sensor_id;sensor_type;location;lat;lon;timestamp;temperature;humidity
18339;DHT22;9295;44.484;11.240;2022-08-18T00:01:12;23.60;99.90
18339;DHT22;9295;44.484;11.240;2022-08-18T00:03:42;23.50;99.90
18339;DHT22;9295;44.484;11.240;2022-08-18T00:06:33;23.40;99.90
18339;DHT22;9295;44.484;11.240;2022-08-18T00:09:04;23.40;99.90
18339;DHT22;9295;44.484;11.240;2022-08-18T00:11:37;23.40;99.90
18339;DHT22;9295;44.484;11.240;2022-08-18T00:14:10;23.40;99.90
18339;DHT22;9295;44.484;11.240;2022-08-18T00:16:49;23.30;99.90
18339;DHT22;9295;44.484;11.240;2022-08-18T00:19:18;23.40;99.90
18339;DHT22;9295;44.484;11.240;2022-08-18T00:22:07;23.40;99.90
18339;DHT22;9295;44.484;11.240;2022-08-18T00:24:42;23.50;99.90
18339;DHT22;9295;44.484;11.240;2022-08-18T00:27:17;23.40;99.90
18339;DHT22;9295;44.484;11.240;2022-08-18T00:29:49;23.40;99.90
18339;DHT22;9295;44.484;11.240;2022-08-18T00:32:21;23.40;99.90
18339;DHT22;9295;44.484;11.240;2022-08-18T00:34:50;23.30;99.90
18339;DHT22;9295;44.484;11.240;2022-08-18T00:37:18;23.30;99.90
18339;DHT22;9295;44.484;11.240;2022-08-18T00:39:49;23.30;99.90
18339;DHT22;9295;44.484;11.240;2022-08-18T00:42:22;23.30;99.90
18339;DHT22;9295;44.484;11.240;2022-08-18T00:45:05;23.30;99.90
18339;DHT22;9295;44.484;11.240;2022-08-18T00:47:34;23.20;99.90
18339;DHT22;9295;44.484;11.240;2022-08-18T00:50:22;23.30;99.90
18339;DHT22;9295;44.484;11.240;2022-08-18T00:52:57;23.30;99.90
18339;DHT22;9295;44.484;11.240;2022-08-18T00:55:28;23.30;99.90
18339;DHT22;9295;44.484;11.240;2022-08-18T00:58:02;23.30;99.90
18339;DHT22;9295;44.484;11.240;2022-08-18T01:00:32;23.30;99.90
18339;DHT22;9295;44.484;11.240;2022-08-18T01:03:07;23.30;99.90
18339;DHT22;9295;44.484;11.240;2022-08-18T01:05:41;23.30;99.90
18339;DHT22;9295;44.484;11.240;2022-08-18T01:08:12;23.30;99.90
18339;DHT22;9295;44.484;11.240;2022-08-18T01:10:43;23.30;99.90
18339;DHT22;9295;44.484;11.240;2022-08-18T01:13:13;23.30;99.90
18339;DHT22;9295;44.484;11.240;2022-08-18T01:15:42;23.20;99.90
18339;DHT22;9295;44.484;11.240;2022-08-18T01:18:12;23.30;99.90
18339;DHT22;9295;44.484;11.240;2022-08-18T01:21:03;23.30;99.90
18339;DHT22;9295;44.484;11.240;2022-08-18T01:23:53;23.30;99.90
18339;DHT22;9295;44.484;11.240;2022-08-18T01:26:25;23.20;99.90
18339;DHT22;9295;44.484;11.240;2022-08-18T01:28:52;23.20;99.90
18339;DHT22;9295;44.484;11.240;2022-08-18T01:31:34;23.30;99.90
18339;DHT22;9295;44.484;11.240;2022-08-18T01:34:05;23.30;99.90
18339;DHT22;9295;44.484;11.240;2022-08-18T01:36:34;23.30;99.90
18339;DHT22;9295;44.484;11.240;2022-08-18T01:39:10;23.30;99.90
18339;DHT22;9295;44.484;11.240;2022-08-18T01:41:39;23.20;99.90
18339;DHT22;9295;44.484;11.240;2022-08-18T01:44:08;23.20;99.90
18339;DHT22;9295;44.484;11.240;2022-08-18T01:46:39;23.20;99.90
18339;DHT22;9295;44.484;11.240;2022-08-18T01:49:09;23.30;99.90
18339;DHT22;9295;44.484;11.240;2022-08-18T01:51:39;23.30;99.90
18339;DHT22;9295;44.484;11.240;2022-08-18T01:54:12;23.20;99.90
18339;DHT22;9295;44.484;11.240;2022-08-18T01:56:42;23.10;99.90
18339;DHT22;9295;44.484;11.240;2022-08-18T01:59:13;23.00;99.90
18339;DHT22;9295;44.484;11.240;2022-08-18T02:01:45;23.00;99.90
18339;DHT22;9295;44.484;11.240;2022-08-18T02:07:05;23.00;99.90
18339;DHT22;9295;44.484;11.240;2022-08-18T02:09:37;23.00;99.90
18339;DHT22;9295;44.484;11.240;2022-08-18T02:12:07;23.00;99.90
18339;DHT22;9295;44.484;11.240;2022-08-18T02:14:36;23.00;99.90
18339;DHT22;9295;44.484;11.240;2022-08-18T02:17:07;23.10;99.90
18339;DHT22;9295;44.484;11.240;2022-08-18T02:19:39;23.10;99.90
18339;DHT22;9295;44.484;11.240;2022-08-18T02:22:11;23.30;99.90
18339;DHT22;9295;44.484;11.240;2022-08-18T02:24:43;23.20;99.90
18339;DHT22;9295;44.484;11.240;2022-08-18T02:27:16;23.20;99.90
18339;DHT22;9295;44.484;11.240;2022-08-18T02:29:44;23.20;99.90
18339;DHT22;9295;44.484;11.240;2022-08-18T02:32:13;23.10;99.90
18339;DHT22;9295;44.484;11.240;2022-08-18T02:34:41;23.00;99.90
18339;DHT22;9295;44.484;11.240;2022-08-18T02:37:10;23.00;99.90
18339;DHT22;9295;44.484;11.240;2022-08-18T02:39:43;23.00;99.90
18339;DHT22;9295;44.484;11.240;2022-08-18T02:42:14;23.00;99.90
18339;DHT22;9295;44.484;11.240;2022-08-18T02:44:42;22.90;99.90
18339;DHT22;9295;44.484;11.240;2022-08-18T02:47:13;22.90;99.90
18339;DHT22;9295;44.484;11.240;2022-08-18T02:49:42;23.00;99.90
18339;DHT22;9295;44.484;11.240;2022-08-18T02:52:11;23.20;99.90
18339;DHT22;9295;44.484;11.240;2022-08-18T02:54:39;23.30;99.90
18339;DHT22;9295;44.484;11.240;2022-08-18T02:57:11;23.30;99.90
18339;DHT22;9295;44.484;11.240;2022-08-18T02:59:40;23.40;99.90
18339;DHT22;9295;44.484;11.240;2022-08-18T03:02:13;23.40;99.90
18339;DHT22;9295;44.484;11.240;2022-08-18T03:04:44;23.50;99.90
18339;DHT22;9295;44.484;11.240;2022-08-18T03:07:13;23.70;99.90
18339;DHT22;9295;44.484;11.240;2022-08-18T03:09:41;23.70;99.90
18339;DHT22;9295;44.484;11.240;2022-08-18T03:12:11;23.70;99.90
18339;DHT22;9295;44.484;11.240;2022-08-18T03:14:40;23.60;99.90
18339;DHT22;9295;44.484;11.240;2022-08-18T03:17:09;23.50;99.90
18339;DHT22;9295;44.484;11.240;2022-08-18T03:19:37;23.40;99.90
18339;DHT22;9295;44.484;11.240;2022-08-18T03:22:08;23.30;99.90
18339;DHT22;9295;44.484;11.240;2022-08-18T03:24:55;23.30;99.90
18339;DHT22;9295;44.484;11.240;2022-08-18T03:27:25;23.30;99.90
18339;DHT22;9295;44.484;11.240;2022-08-18T03:29:54;23.20;99.90
18339;DHT22;9295;44.484;11.240;2022-08-18T03:32:25;23.30;99.90
18339;DHT22;9295;44.484;11.240;2022-08-18T03:34:53;23.20;99.90
18339;DHT22;9295;44.484;11.240;2022-08-18T03:37:23;23.20;99.90
18339;DHT22;9295;44.484;11.240;2022-08-18T03:39:52;23.20;99.90
18339;DHT22;9295;44.484;11.240;2022-08-18T03:42:20;23.20;99.90
18339;DHT22;9295;44.484;11.240;2022-08-18T03:44:51;23.20;99.90
18339;DHT22;9295;44.484;11.240;2022-08-18T03:47:19;23.20;99.90
18339;DHT22;9295;44.484;11.240;2022-08-18T03:49:48;23.10;99.90
18339;DHT22;9295;44.484;11.240;2022-08-18T03:52:17;23.10;99.90
18339;DHT22;9295;44.484;11.240;2022-08-18T03:54:45;23.10;99.90
18339;DHT22;9295;44.484;11.240;2022-08-18T03:57:17;23.10;99.90
18339;DHT22;9295;44.484;11.240;2022-08-18T03:59:45;23.20;99.90
18339;DHT22;9295;44.484;11.240;2022-08-18T04:02:15;23.20;99.90
18339;DHT22;9295;44.484;11.240;2022-08-18T04:04:44;23.20;99.90
18339;DHT22;9295;44.484;11.240;2022-08-18T04:07:17;23.20;99.90
18339;DHT22;9295;44.484;11.240;2022-08-18T04:09:46;23.10;99.90
18339;DHT22;9295;44.484;11.240;2022-08-18T04:12:15;23.10;99.90
18339;DHT22;9295;44.484;11.240;2022-08-18T04:14:48;23.10;99.90
18339;DHT22;9295;44.484;11.240;2022-08-18T04:17:20;23.10;99.90
18339;DHT22;9295;44.484;11.240;2022-08-18T04:19:52;23.10;99.90
18339;DHT22;9295;44.484;11.240;2022-08-18T04:22:22;23.10;99.90
18339;DHT22;9295;44.484;11.240;2022-08-18T04:24:51;23.10;99.90
18339;DHT22;9295;44.484;11.240;2022-08-18T04:27:20;23.10;99.90
18339;DHT22;9295;44.484;11.240;2022-08-18T04:29:50;23.20;99.90
18339;DHT22;9295;44.484;11.240;2022-08-18T04:32:20;23.20;99.90
18339;DHT22;9295;44.484;11.240;2022-08-18T04:34:56;23.10;99.90
18339;DHT22;9295;44.484;11.240;2022-08-18T04:37:31;23.10;99.90
18339;DHT22;9295;44.484;11.240;2022-08-18T04:40:08;23.10;99.90
18339;DHT22;9295;44.484;11.240;2022-08-18T04:42:39;23.20;99.90
18339;DHT22;9295;44.484;11.240;2022-08-18T04:45:10;23.20;99.90
18339;DHT22;9295;44.484;11.240;2022-08-18T04:47:40;23.20;99.90
18339;DHT22;9295;44.484;11.240;2022-08-18T04:50:11;23.10;99.90
18339;DHT22;9295;44.484;11.240;2022-08-18T04:52:41;23.00;99.90
18339;DHT22;9295;44.484;11.240;2022-08-18T04:55:27;23.00;99.90
18339;DHT22;9295;44.484;11.240;2022-08-18T04:57:58;22.90;99.90
18339;DHT22;9295;44.484;11.240;2022-08-18T05:00:27;22.90;99.90
18339;DHT22;9295;44.484;11.240;2022-08-18T05:03:00;22.90;99.90
18339;DHT22;9295;44.484;11.240;2022-08-18T05:05:30;23.00;99.90
18339;DHT22;9295;44.484;11.240;2022-08-18T05:07:59;23.00;99.90
18339;DHT22;9295;44.484;11.240;2022-08-18T05:10:27;23.00;99.90
18339;DHT22;9295;44.484;11.240;2022-08-18T05:12:56;23.00;99.90
18339;DHT22;9295;44.484;11.240;2022-08-18T05:15:24;23.00;99.90
18339;DHT22;9295;44.484;11.240;2022-08-18T05:17:53;23.10;99.90
18339;DHT22;9295;44.484;11.240;2022-08-18T05:20:25;23.20;99.90
18339;DHT22;9295;44.484;11.240;2022-08-18T05:22:55;23.30;99.90
18339;DHT22;9295;44.484;11.240;2022-08-18T05:25:23;23.20;99.90
18339;DHT22;9295;44.484;11.240;2022-08-18T05:27:52;23.30;99.90
18339;DHT22;9295;44.484;11.240;2022-08-18T05:30:20;23.40;99.90
18339;DHT22;9295;44.484;11.240;2022-08-18T05:32:49;23.50;99.90
18339;DHT22;9295;44.484;11.240;2022-08-18T05:35:22;23.50;99.90
18339;DHT22;9295;44.484;11.240;2022-08-18T05:38:19;23.60;99.90
18339;DHT22;9295;44.484;11.240;2022-08-18T05:41:06;23.60;99.90
18339;DHT22;9295;44.484;11.240;2022-08-18T05:43:41;23.60;99.90
18339;DHT22;9295;44.484;11.240;2022-08-18T05:46:20;23.70;99.90
18339;DHT22;9295;44.484;11.240;2022-08-18T05:48:51;23.70;99.90
18339;DHT22;9295;44.484;11.240;2022-08-18T05:51:40;23.70;99.90
18339;DHT22;9295;44.484;11.240;2022-08-18T05:54:11;23.70;99.90
18339;DHT22;9295;44.484;11.240;2022-08-18T05:57:01;23.70;99.90
18339;DHT22;9295;44.484;11.240;2022-08-18T05:59:33;23.70;99.90
18339;DHT22;9295;44.484;11.240;2022-08-18T06:02:05;23.70;99.90
18339;DHT22;9295;44.484;11.240;2022-08-18T06:04:43;23.70;99.90
18339;DHT22;9295;44.484;11.240;2022-08-18T06:07:17;23.70;99.90
18339;DHT22;9295;44.484;11.240;2022-08-18T06:09:50;23.70;99.90
18339;DHT22;9295;44.484;11.240;2022-08-18T06:12:29;23.70;99.90
18339;DHT22;9295;44.484;11.240;2022-08-18T06:15:09;23.70;99.90
18339;DHT22;9295;44.484;11.240;2022-08-18T06:18:00;23.60;99.90
18339;DHT22;9295;44.484;11.240;2022-08-18T06:20:43;23.60;99.90
18339;DHT22;9295;44.484;11.240;2022-08-18T06:23:22;23.60;99.90
18339;DHT22;9295;44.484;11.240;2022-08-18T06:26:06;23.60;99.90
18339;DHT22;9295;44.484;11.240;2022-08-18T06:28:46;23.60;99.90
18339;DHT22;9295;44.484;11.240;2022-08-18T06:31:22;23.60;99.90
18339;DHT22;9295;44.484;11.240;2022-08-18T06:34:00;23.50;99.90
18339;DHT22;9295;44.484;11.240;2022-08-18T06:36:37;23.50;99.90
18339;DHT22;9295;44.484;11.240;2022-08-18T06:39:16;23.40;99.90
18339;DHT22;9295;44.484;11.240;2022-08-18T06:41:49;23.40;99.90
18339;DHT22;9295;44.484;11.240;2022-08-18T06:44:22;23.40;99.90
18339;DHT22;9295;44.484;11.240;2022-08-18T06:46:58;23.40;99.90
18339;DHT22;9295;44.484;11.240;2022-08-18T06:49:40;23.40;99.90
18339;DHT22;9295;44.484;11.240;2022-08-18T06:52:19;23.40;99.90
18339;DHT22;9295;44.484;11.240;2022-08-18T06:54:52;23.50;99.90
18339;DHT22;9295;44.484;11.240;2022-08-18T06:57:30;23.40;99.90
18339;DHT22;9295;44.484;11.240;2022-08-18T07:00:06;23.50;99.90
18339;DHT22;9295;44.484;11.240;2022-08-18T07:02:46;23.50;99.90
18339;DHT22;9295;44.484;11.240;2022-08-18T07:05:20;23.40;99.90
18339;DHT22;9295;44.484;11.240;2022-08-18T07:08:08;23.50;99.90
18339;DHT22;9295;44.484;11.240;2022-08-18T07:10:39;23.50;99.90
18339;DHT22;9295;44.484;11.240;2022-08-18T07:13:21;23.50;99.90
18339;DHT22;9295;44.484;11.240;2022-08-18T07:15:53;23.50;99.90
18339;DHT22;9295;44.484;11.240;2022-08-18T07:18:24;23.40;99.90
18339;DHT22;9295;44.484;11.240;2022-08-18T07:20:56;23.30;99.90
18339;DHT22;9295;44.484;11.240;2022-08-18T07:23:30;23.30;99.90
18339;DHT22;9295;44.484;11.240;2022-08-18T07:26:08;23.30;99.90
18339;DHT22;9295;44.484;11.240;2022-08-18T07:28:44;23.30;99.90
18339;DHT22;9295;44.484;11.240;2022-08-18T07:31:29;23.30;99.90
18339;DHT22;9295;44.484;11.240;2022-08-18T07:34:03;23.40;99.90
18339;DHT22;9295;44.484;11.240;2022-08-18T07:36:38;23.30;99.90
18339;DHT22;9295;44.484;11.240;2022-08-18T07:39:30;23.40;99.90
18339;DHT22;9295;44.484;11.240;2022-08-18T07:42:04;23.40;99.90
18339;DHT22;9295;44.484;11.240;2022-08-18T07:44:42;23.40;99.90
18339;DHT22;9295;44.484;11.240;2022-08-18T07:47:16;23.50;99.90
18339;DHT22;9295;44.484;11.240;2022-08-18T07:49:46;23.40;99.90
18339;DHT22;9295;44.484;11.240;2022-08-18T07:52:39;23.50;99.90
18339;DHT22;9295;44.484;11.240;2022-08-18T07:55:21;23.50;99.90
18339;DHT22;9295;44.484;11.240;2022-08-18T07:58:11;23.50;99.90
18339;DHT22;9295;44.484;11.240;2022-08-18T08:00:47;23.50;99.90
18339;DHT22;9295;44.484;11.240;2022-08-18T08:03:36;23.50;99.90
18339;DHT22;9295;44.484;11.240;2022-08-18T08:06:14;23.50;99.90
18339;DHT22;9295;44.484;11.240;2022-08-18T08:08:53;23.50;99.90
18339;DHT22;9295;44.484;11.240;2022-08-18T08:11:35;23.50;99.90
18339;DHT22;9295;44.484;11.240;2022-08-18T08:14:24;23.50;99.90
18339;DHT22;9295;44.484;11.240;2022-08-18T08:17:05;23.50;99.90
18339;DHT22;9295;44.484;11.240;2022-08-18T08:19:52;23.60;99.90
18339;DHT22;9295;44.484;11.240;2022-08-18T08:22:30;23.60;99.90
18339;DHT22;9295;44.484;11.240;2022-08-18T08:25:04;23.50;99.90
18339;DHT22;9295;44.484;11.240;2022-08-18T08:28:06;23.50;99.90
18339;DHT22;9295;44.484;11.240;2022-08-18T08:30:40;23.40;99.90
18339;DHT22;9295;44.484;11.240;2022-08-18T08:33:23;23.40;99.90
18339;DHT22;9295;44.484;11.240;2022-08-18T08:35:59;23.30;99.90
18339;DHT22;9295;44.484;11.240;2022-08-18T08:38:37;23.20;99.90
18339;DHT22;9295;44.484;11.240;2022-08-18T08:41:13;23.30;99.90
18339;DHT22;9295;44.484;11.240;2022-08-18T08:43:50;23.30;99.90
18339;DHT22;9295;44.484;11.240;2022-08-18T08:46:21;23.20;99.90
18339;DHT22;9295;44.484;11.240;2022-08-18T08:48:55;23.30;99.90
18339;DHT22;9295;44.484;11.240;2022-08-18T08:51:33;23.20;99.90
18339;DHT22;9295;44.484;11.240;2022-08-18T08:54:08;23.10;99.90
18339;DHT22;9295;44.484;11.240;2022-08-18T08:56:45;23.20;99.90
18339;DHT22;9295;44.484;11.240;2022-08-18T08:59:19;23.20;99.90
18339;DHT22;9295;44.484;11.240;2022-08-18T09:01:58;23.00;99.90
18339;DHT22;9295;44.484;11.240;2022-08-18T09:04:40;23.00;99.90
18339;DHT22;9295;44.484;11.240;2022-08-18T09:07:43;23.10;99.90
18339;DHT22;9295;44.484;11.240;2022-08-18T09:13:45;22.80;99.90
18339;DHT22;9295;44.484;11.240;2022-08-18T09:16:24;22.70;99.90
18339;DHT22;9295;44.484;11.240;2022-08-18T09:19:09;22.80;99.90
18339;DHT22;9295;44.484;11.240;2022-08-18T09:21:48;22.90;99.90
18339;DHT22;9295;44.484;11.240;2022-08-18T09:24:25;22.90;99.90
18339;DHT22;9295;44.484;11.240;2022-08-18T09:27:11;22.90;99.90
18339;DHT22;9295;44.484;11.240;2022-08-18T09:29:50;23.00;99.90
18339;DHT22;9295;44.484;11.240;2022-08-18T09:32:48;23.00;99.90
18339;DHT22;9295;44.484;11.240;2022-08-18T09:35:40;22.90;99.90
18339;DHT22;9295;44.484;11.240;2022-08-18T09:38:25;23.00;99.90
18339;DHT22;9295;44.484;11.240;2022-08-18T09:41:21;23.00;99.90
18339;DHT22;9295;44.484;11.240;2022-08-18T09:44:06;23.00;99.90
18339;DHT22;9295;44.484;11.240;2022-08-18T09:46:57;23.00;99.90
18339;DHT22;9295;44.484;11.240;2022-08-18T09:49:41;22.90;99.90
18339;DHT22;9295;44.484;11.240;2022-08-18T09:52:55;22.70;99.90
18339;DHT22;9295;44.484;11.240;2022-08-18T09:55:55;22.60;99.90
18339;DHT22;9295;44.484;11.240;2022-08-18T09:58:48;22.60;99.90
18339;DHT22;9295;44.484;11.240;2022-08-18T10:01:32;22.50;99.90
18339;DHT22;9295;44.484;11.240;2022-08-18T10:04:33;22.50;99.90
18339;DHT22;9295;44.484;11.240;2022-08-18T10:07:19;22.40;99.90
18339;DHT22;9295;44.484;11.240;2022-08-18T10:10:13;22.30;99.90
18339;DHT22;9295;44.484;11.240;2022-08-18T10:13:16;22.30;99.90
18339;DHT22;9295;44.484;11.240;2022-08-18T10:16:03;22.40;99.90
18339;DHT22;9295;44.484;11.240;2022-08-18T10:18:47;22.40;99.90
18339;DHT22;9295;44.484;11.240;2022-08-18T10:21:21;22.40;99.90
18339;DHT22;9295;44.484;11.240;2022-08-18T10:24:11;22.40;99.90
18339;DHT22;9295;44.484;11.240;2022-08-18T10:27:03;22.40;99.90
18339;DHT22;9295;44.484;11.240;2022-08-18T10:29:52;22.40;99.90
18339;DHT22;9295;44.484;11.240;2022-08-18T10:32:40;22.50;99.90
18339;DHT22;9295;44.484;11.240;2022-08-18T10:35:53;22.60;99.90
18339;DHT22;9295;44.484;11.240;2022-08-18T10:38:35;22.70;99.90
18339;DHT22;9295;44.484;11.240;2022-08-18T10:41:11;22.60;99.90
18339;DHT22;9295;44.484;11.240;2022-08-18T10:44:02;22.70;99.90
18339;DHT22;9295;44.484;11.240;2022-08-18T10:46:54;22.70;99.90
18339;DHT22;9295;44.484;11.240;2022-08-18T10:49:30;22.70;99.90
18339;DHT22;9295;44.484;11.240;2022-08-18T10:55:35;22.80;99.90
18339;DHT22;9295;44.484;11.240;2022-08-18T10:58:27;23.00;99.90
18339;DHT22;9295;44.484;11.240;2022-08-18T11:01:14;23.10;99.90
18339;DHT22;9295;44.484;11.240;2022-08-18T11:04:00;23.30;99.90
18339;DHT22;9295;44.484;11.240;2022-08-18T11:06:54;23.50;99.90
18339;DHT22;9295;44.484;11.240;2022-08-18T11:09:28;23.70;99.90
18339;DHT22;9295;44.484;11.240;2022-08-18T11:12:00;24.00;99.90
18339;DHT22;9295;44.484;11.240;2022-08-18T11:18:00;24.60;99.90
18339;DHT22;9295;44.484;11.240;2022-08-18T11:20:37;24.80;99.90
18339;DHT22;9295;44.484;11.240;2022-08-18T11:23:15;25.00;99.90
18339;DHT22;9295;44.484;11.240;2022-08-18T11:25:48;25.30;99.90
18339;DHT22;9295;44.484;11.240;2022-08-18T11:28:19;25.60;99.90
18339;DHT22;9295;44.484;11.240;2022-08-18T11:30:56;25.80;99.90
18339;DHT22;9295;44.484;11.240;2022-08-18T11:33:32;26.00;99.90
18339;DHT22;9295;44.484;11.240;2022-08-18T11:36:05;26.20;99.90
18339;DHT22;9295;44.484;11.240;2022-08-18T11:38:36;26.10;99.90
18339;DHT22;9295;44.484;11.240;2022-08-18T11:41:16;26.00;99.90
18339;DHT22;9295;44.484;11.240;2022-08-18T11:43:45;25.90;99.90
18339;DHT22;9295;44.484;11.240;2022-08-18T11:46:27;25.90;99.90
18339;DHT22;9295;44.484;11.240;2022-08-18T11:48:59;26.00;99.90
18339;DHT22;9295;44.484;11.240;2022-08-18T11:51:32;26.30;99.90
18339;DHT22;9295;44.484;11.240;2022-08-18T11:54:19;26.50;99.90
18339;DHT22;9295;44.484;11.240;2022-08-18T12:00:36;26.80;99.90
18339;DHT22;9295;44.484;11.240;2022-08-18T12:03:18;26.90;99.90
18339;DHT22;9295;44.484;11.240;2022-08-18T12:05:53;27.00;99.90
18339;DHT22;9295;44.484;11.240;2022-08-18T12:08:30;27.00;99.90
18339;DHT22;9295;44.484;11.240;2022-08-18T12:11:23;27.10;99.90
18339;DHT22;9295;44.484;11.240;2022-08-18T12:14:04;27.20;99.90
18339;DHT22;9295;44.484;11.240;2022-08-18T12:16:54;27.20;99.90
18339;DHT22;9295;44.484;11.240;2022-08-18T12:19:26;27.20;99.90
18339;DHT22;9295;44.484;11.240;2022-08-18T12:22:01;27.30;99.90
18339;DHT22;9295;44.484;11.240;2022-08-18T12:24:41;27.50;99.90
18339;DHT22;9295;44.484;11.240;2022-08-18T12:27:11;27.60;99.90
18339;DHT22;9295;44.484;11.240;2022-08-18T12:29:48;27.60;99.90
18339;DHT22;9295;44.484;11.240;2022-08-18T12:32:19;27.50;99.90
18339;DHT22;9295;44.484;11.240;2022-08-18T12:35:11;27.60;99.90
18339;DHT22;9295;44.484;11.240;2022-08-18T12:37:43;27.60;99.90
18339;DHT22;9295;44.484;11.240;2022-08-18T12:40:35;27.70;99.90
18339;DHT22;9295;44.484;11.240;2022-08-18T12:43:07;27.60;99.90
18339;DHT22;9295;44.484;11.240;2022-08-18T12:45:37;27.60;99.90
18339;DHT22;9295;44.484;11.240;2022-08-18T12:48:07;27.70;99.90
18339;DHT22;9295;44.484;11.240;2022-08-18T12:50:38;27.80;99.90
18339;DHT22;9295;44.484;11.240;2022-08-18T12:53:21;27.80;99.90
18339;DHT22;9295;44.484;11.240;2022-08-18T12:56:18;27.70;99.90
18339;DHT22;9295;44.484;11.240;2022-08-18T12:58:47;27.60;99.90
18339;DHT22;9295;44.484;11.240;2022-08-18T13:01:16;27.50;99.90
18339;DHT22;9295;44.484;11.240;2022-08-18T13:03:45;27.50;99.90
18339;DHT22;9295;44.484;11.240;2022-08-18T13:06:39;27.40;99.90
18339;DHT22;9295;44.484;11.240;2022-08-18T13:09:31;27.40;99.90
18339;DHT22;9295;44.484;11.240;2022-08-18T13:12:16;27.40;99.90
18339;DHT22;9295;44.484;11.240;2022-08-18T13:14:46;27.40;99.90
18339;DHT22;9295;44.484;11.240;2022-08-18T13:17:17;27.30;99.90
18339;DHT22;9295;44.484;11.240;2022-08-18T13:20:02;27.20;99.90
18339;DHT22;9295;44.484;11.240;2022-08-18T13:22:33;27.10;99.90
18339;DHT22;9295;44.484;11.240;2022-08-18T13:25:03;27.10;99.90
18339;DHT22;9295;44.484;11.240;2022-08-18T13:27:35;27.00;99.90
18339;DHT22;9295;44.484;11.240;2022-08-18T13:30:12;26.80;99.90
18339;DHT22;9295;44.484;11.240;2022-08-18T13:32:58;26.70;99.90
18339;DHT22;9295;44.484;11.240;2022-08-18T13:35:47;26.80;99.90
18339;DHT22;9295;44.484;11.240;2022-08-18T13:38:22;26.80;99.90
18339;DHT22;9295;44.484;11.240;2022-08-18T13:40:56;26.80;99.90
18339;DHT22;9295;44.484;11.240;2022-08-18T13:43:31;27.00;99.90
18339;DHT22;9295;44.484;11.240;2022-08-18T13:46:01;27.10;99.90
18339;DHT22;9295;44.484;11.240;2022-08-18T13:48:35;27.10;99.90
18339;DHT22;9295;44.484;11.240;2022-08-18T13:51:08;26.80;99.90
18339;DHT22;9295;44.484;11.240;2022-08-18T13:53:39;26.80;99.90
18339;DHT22;9295;44.484;11.240;2022-08-18T13:56:25;26.80;99.90
18339;DHT22;9295;44.484;11.240;2022-08-18T13:58:59;26.80;99.90
18339;DHT22;9295;44.484;11.240;2022-08-18T14:01:30;26.80;99.90
18339;DHT22;9295;44.484;11.240;2022-08-18T14:04:19;26.90;99.90
18339;DHT22;9295;44.484;11.240;2022-08-18T14:06:49;27.00;99.90
18339;DHT22;9295;44.484;11.240;2022-08-18T14:09:25;26.90;99.90
18339;DHT22;9295;44.484;11.240;2022-08-18T14:12:06;26.70;99.90
18339;DHT22;9295;44.484;11.240;2022-08-18T14:14:52;26.30;99.90
18339;DHT22;9295;44.484;11.240;2022-08-18T14:17:22;26.10;99.90
18339;DHT22;9295;44.484;11.240;2022-08-18T14:19:52;26.10;99.90
18339;DHT22;9295;44.484;11.240;2022-08-18T14:22:49;26.30;99.90
18339;DHT22;9295;44.484;11.240;2022-08-18T14:25:36;26.50;99.90
18339;DHT22;9295;44.484;11.240;2022-08-18T14:28:22;26.60;99.90
18339;DHT22;9295;44.484;11.240;2022-08-18T14:30:53;26.70;99.90
18339;DHT22;9295;44.484;11.240;2022-08-18T14:33:23;26.80;99.90
18339;DHT22;9295;44.484;11.240;2022-08-18T14:36:12;26.80;99.90
18339;DHT22;9295;44.484;11.240;2022-08-18T14:38:41;27.00;99.90
18339;DHT22;9295;44.484;11.240;2022-08-18T14:41:13;27.00;99.90
18339;DHT22;9295;44.484;11.240;2022-08-18T14:43:42;27.10;99.90
18339;DHT22;9295;44.484;11.240;2022-08-18T14:46:32;27.10;99.90
18339;DHT22;9295;44.484;11.240;2022-08-18T14:49:07;27.10;99.90
18339;DHT22;9295;44.484;11.240;2022-08-18T14:51:35;27.10;99.90
18339;DHT22;9295;44.484;11.240;2022-08-18T14:54:10;27.10;99.90
18339;DHT22;9295;44.484;11.240;2022-08-18T14:56:44;26.80;99.90
18339;DHT22;9295;44.484;11.240;2022-08-18T14:59:13;26.90;99.90
18339;DHT22;9295;44.484;11.240;2022-08-18T15:01:46;27.00;99.90
18339;DHT22;9295;44.484;11.240;2022-08-18T15:04:17;27.10;99.90
18339;DHT22;9295;44.484;11.240;2022-08-18T15:06:46;27.10;99.90
18339;DHT22;9295;44.484;11.240;2022-08-18T15:09:23;27.20;99.90
18339;DHT22;9295;44.484;11.240;2022-08-18T15:11:53;27.20;99.90
18339;DHT22;9295;44.484;11.240;2022-08-18T15:14:25;27.20;99.90
18339;DHT22;9295;44.484;11.240;2022-08-18T15:17:02;27.20;99.90
18339;DHT22;9295;44.484;11.240;2022-08-18T15:19:39;27.20;99.90
18339;DHT22;9295;44.484;11.240;2022-08-18T15:22:26;27.10;99.90
18339;DHT22;9295;44.484;11.240;2022-08-18T15:25:14;27.10;99.90
18339;DHT22;9295;44.484;11.240;2022-08-18T15:28:00;27.00;99.90
18339;DHT22;9295;44.484;11.240;2022-08-18T15:30:29;27.10;99.90
18339;DHT22;9295;44.484;11.240;2022-08-18T15:32:59;27.10;99.90
18339;DHT22;9295;44.484;11.240;2022-08-18T15:35:29;27.10;99.90
18339;DHT22;9295;44.484;11.240;2022-08-18T15:37:58;27.00;99.90
18339;DHT22;9295;44.484;11.240;2022-08-18T15:40:32;27.00;99.90
18339;DHT22;9295;44.484;11.240;2022-08-18T15:43:07;27.10;99.90
18339;DHT22;9295;44.484;11.240;2022-08-18T15:45:39;27.10;99.90
18339;DHT22;9295;44.484;11.240;2022-08-18T15:48:29;27.10;99.90
18339;DHT22;9295;44.484;11.240;2022-08-18T15:50:58;27.00;99.90
18339;DHT22;9295;44.484;11.240;2022-08-18T15:53:38;27.10;99.90
18339;DHT22;9295;44.484;11.240;2022-08-18T15:56:13;26.90;99.90
18339;DHT22;9295;44.484;11.240;2022-08-18T15:58:47;26.90;99.90
18339;DHT22;9295;44.484;11.240;2022-08-18T16:01:18;26.80;99.90
18339;DHT22;9295;44.484;11.240;2022-08-18T16:04:00;26.80;99.90
18339;DHT22;9295;44.484;11.240;2022-08-18T16:06:34;26.80;99.90
18339;DHT22;9295;44.484;11.240;2022-08-18T16:09:05;26.70;99.90
18339;DHT22;9295;44.484;11.240;2022-08-18T16:11:36;26.60;99.90
18339;DHT22;9295;44.484;11.240;2022-08-18T16:14:05;26.60;99.90
18339;DHT22;9295;44.484;11.240;2022-08-18T16:16:36;26.70;99.90
18339;DHT22;9295;44.484;11.240;2022-08-18T16:19:06;26.70;99.90
18339;DHT22;9295;44.484;11.240;2022-08-18T16:21:35;26.70;99.90
18339;DHT22;9295;44.484;11.240;2022-08-18T16:24:06;26.70;99.90
18339;DHT22;9295;44.484;11.240;2022-08-18T16:26:35;26.60;99.90
18339;DHT22;9295;44.484;11.240;2022-08-18T16:29:03;26.60;99.90
18339;DHT22;9295;44.484;11.240;2022-08-18T16:31:32;26.50;99.90
18339;DHT22;9295;44.484;11.240;2022-08-18T16:34:03;26.40;99.90
18339;DHT22;9295;44.484;11.240;2022-08-18T16:36:33;26.30;99.90
18339;DHT22;9295;44.484;11.240;2022-08-18T16:39:02;26.20;99.90
18339;DHT22;9295;44.484;11.240;2022-08-18T16:41:32;26.10;99.90
18339;DHT22;9295;44.484;11.240;2022-08-18T16:44:01;26.00;99.90